Time;durP1;ratioP1;P1;durP2;ratioP2;P2;SDS_P1;SDS_P2;PMS_P1;PMS_P2;Temp;Humidity;BMP_temperature;BMP_pressure;BME280_temperature;BME280_humidity;BME280_pressure;Samples;Min_cycle;Max_cycle;Signal;HPM_P1;HPM_P2
2023/12/20 00:02:07;;;;;;;44.92;34.45;;;;;;;5.49;94.19;98101.94;5051405;28;20043;-69
2023/12/20 00:04:32;;;;;;;41.63;34.40;;;;;;;5.51;94.03;98105.22;5001062;28;20033;-69
2023/12/20 00:06:57;;;;;;;43.50;32.47;;;;;;;5.54;93.58;98102.13;5031966;28;20041;-69
2023/12/20 00:09:23;;;;;;;45.78;35.33;;;;;;;5.51;93.73;98099.88;5017348;28;20025;-69
2023/12/20 00:11:48;;;;;;;46.20;36.05;;;;;;;5.53;94.08;98087.13;5030279;28;20500;-69
2023/12/20 00:14:13;;;;;;;51.88;36.10;;;;;;;5.52;94.06;98090.84;5048804;28;20029;-69
2023/12/20 00:16:39;;;;;;;47.22;33.75;;;;;;;5.52;93.99;98090.84;5021179;28;20480;-69
2023/12/20 00:19:04;;;;;;;43.67;34.03;;;;;;;5.58;93.73;98089.97;5046523;28;20031;-69
2023/12/20 00:21:29;;;;;;;38.35;32.20;;;;;;;5.35;94.21;98063.00;5021931;28;20049;-69
2023/12/20 00:23:55;;;;;;;44.78;33.78;;;;;;;5.50;94.16;98076.91;5023946;28;20021;-69
2023/12/20 00:26:20;;;;;;;41.85;32.03;;;;;;;5.48;94.61;98073.59;5039932;28;20049;-69
2023/12/20 00:28:45;;;;;;;46.65;34.65;;;;;;;5.55;94.63;98078.91;5031159;28;20021;-69
2023/12/20 00:31:11;;;;;;;38.50;31.25;;;;;;;5.43;94.04;98065.44;5037868;28;20049;-70
2023/12/20 00:33:36;;;;;;;34.33;27.17;;;;;;;5.32;93.79;98058.09;5015553;28;20095;-71
2023/12/20 00:36:02;;;;;;;37.00;29.88;;;;;;;5.49;94.49;98080.59;5046075;28;20417;-70
2023/12/20 00:38:27;;;;;;;42.70;32.30;;;;;;;5.51;94.14;98085.69;5018726;28;20144;-71
2023/12/20 00:40:52;;;;;;;39.53;30.58;;;;;;;5.52;94.92;98077.50;5031734;28;20508;-70
2023/12/20 00:43:18;;;;;;;41.67;31.73;;;;;;;5.57;94.30;98083.03;5015986;28;20129;-71
2023/12/20 00:45:43;;;;;;;38.50;30.58;;;;;;;5.54;94.77;98082.59;5048200;28;20041;-70
2023/12/20 00:48:08;;;;;;;34.70;28.13;;;;;;;5.52;94.77;98074.81;5047253;28;20029;-70
2023/12/20 00:50:34;;;;;;;36.67;28.83;;;;;;;5.37;94.99;98052.94;5029452;28;20516;-69
2023/12/20 00:52:59;;;;;;;38.88;30.23;;;;;;;5.42;94.38;98063.78;5046393;28;20035;-70
2023/12/20 00:55:25;;;;;;;37.63;29.98;;;;;;;5.49;94.67;98075.25;5048443;28;20511;-70
2023/12/20 00:57:50;;;;;;;33.17;27.35;;;;;;;5.48;94.71;98062.91;5025860;28;20032;-71
2023/12/20 01:00:15;;;;;;;39.30;27.67;;;;;;;5.49;95.18;98069.91;5029744;28;20459;-70
2023/12/20 01:02:41;;;;;;;29.55;24.67;;;;;;;5.49;94.80;98066.41;5041442;28;20029;-70
2023/12/20 01:05:07;;;;;;;24.67;20.83;;;;;;;5.45;94.70;98051.84;5029026;28;20036;-70
2023/12/20 01:07:32;;;;;;;30.60;24.25;;;;;;;5.46;94.89;98048.97;5021720;28;20021;-71
2023/12/20 01:09:58;;;;;;;28.67;21.27;;;;;;;5.53;94.33;98049.75;5045588;28;20039;-70
2023/12/20 01:12:23;;;;;;;31.58;23.95;;;;;;;5.47;95.07;98039.94;5024451;28;20071;-70
2023/12/20 01:14:48;;;;;;;20.02;17.58;;;;;;;5.45;95.33;98042.00;5044534;28;20033;-70
2023/12/20 01:17:14;;;;;;;23.73;19.50;;;;;;;5.49;95.30;98043.19;5043943;28;20021;-70
2023/12/20 01:19:39;;;;;;;22.92;19.35;;;;;;;5.47;95.66;98047.94;5017960;28;20040;-70
2023/12/20 01:22:04;;;;;;;23.08;19.70;;;;;;;5.50;95.40;98036.00;5043462;28;20062;-71
2023/12/20 01:24:30;;;;;;;21.92;18.30;;;;;;;5.41;95.39;98034.63;5015222;28;20044;-73
2023/12/20 01:26:56;;;;;;;18.80;16.17;;;;;;;5.39;95.83;98042.06;5024682;28;20033;-71
2023/12/20 01:29:21;;;;;;;16.25;13.90;;;;;;;5.44;96.16;98034.19;5031768;28;20029;-70
2023/12/20 01:31:47;;;;;;;20.60;16.45;;;;;;;5.46;95.81;98022.25;5037475;28;20099;-71
2023/12/20 01:34:12;;;;;;;18.70;16.35;;;;;;;5.40;95.56;98031.16;5003261;28;20083;-71
2023/12/20 01:36:38;;;;;;;17.33;15.52;;;;;;;5.40;95.77;98023.13;5025270;28;20056;-72
2023/12/20 01:39:04;;;;;;;17.80;15.07;;;;;;;5.37;95.95;98018.22;5047291;28;20037;-72
2023/12/20 01:41:29;;;;;;;16.63;14.55;;;;;;;5.48;95.86;98019.38;5041150;28;20025;-70
2023/12/20 01:43:54;;;;;;;17.17;13.75;;;;;;;5.44;95.08;98034.19;5046394;28;20439;-70
2023/12/20 01:46:20;;;;;;;15.68;13.73;;;;;;;5.42;94.92;98021.06;5047755;28;20070;-70
2023/12/20 01:48:45;;;;;;;14.13;12.68;;;;;;;5.41;95.66;98014.06;5045073;28;20037;-70
2023/12/20 01:51:11;;;;;;;14.70;13.07;;;;;;;5.43;95.47;98011.19;5025498;28;20470;-70
2023/12/20 01:53:37;;;;;;;14.35;12.85;;;;;;;5.32;96.08;97994.00;5025194;28;20041;-70
2023/12/20 01:56:02;;;;;;;13.23;11.75;;;;;;;5.37;95.95;98007.53;5024083;28;20036;-70
2023/12/20 01:58:28;;;;;;;15.40;13.00;;;;;;;5.31;95.74;98005.75;5029726;28;20488;-69
2023/12/20 02:00:54;;;;;;;12.13;10.93;;;;;;;5.32;95.96;98004.69;5045588;28;20055;-69
2023/12/20 02:03:20;;;;;;;11.45;10.25;;;;;;;5.36;95.75;98000.56;5002906;28;20117;-70
2023/12/20 02:05:45;;;;;;;12.73;10.75;;;;;;;5.22;96.04;97982.19;5015318;28;20033;-69
2023/12/20 02:08:11;;;;;;;11.80;10.60;;;;;;;5.35;96.10;98003.44;5025418;28;20131;-69
2023/12/20 02:10:36;;;;;;;11.93;9.63;;;;;;;5.35;94.92;98004.25;5020917;28;20111;-69
2023/12/20 02:13:02;;;;;;;11.57;10.38;;;;;;;5.18;95.31;97967.63;5040811;28;20496;-70
2023/12/20 02:15:27;;;;;;;10.35;9.15;;;;;;;5.30;95.75;98006.75;5047461;28;20100;-70
2023/12/20 02:17:53;;;;;;;9.13;8.23;;;;;;;5.32;95.38;98009.22;5027145;28;20029;-72
2023/12/20 02:20:18;;;;;;;9.45;8.55;;;;;;;5.30;95.87;97996.06;5044647;28;20025;-70
2023/12/20 02:22:44;;;;;;;9.00;8.20;;;;;;;5.33;95.12;97987.66;5043499;28;20548;-70
2023/12/20 02:25:09;;;;;;;9.68;8.68;;;;;;;5.31;95.06;97996.91;5015392;28;20037;-70
2023/12/20 02:27:35;;;;;;;7.97;7.28;;;;;;;5.31;95.77;98000.41;5042251;28;20040;-70
2023/12/20 02:30:00;;;;;;;8.32;7.63;;;;;;;5.31;95.03;97992.38;5024748;28;20029;-70
2023/12/20 02:32:26;;;;;;;8.35;7.50;;;;;;;5.33;95.06;97994.84;5029190;28;20132;-71
2023/12/20 02:34:52;;;;;;;8.73;7.82;;;;;;;5.34;95.38;97997.31;5012127;28;20721;-71
2023/12/20 02:37:17;;;;;;;8.80;7.93;;;;;;;5.21;95.28;97968.00;5030617;28;20064;-70
2023/12/20 02:39:42;;;;;;;8.30;7.50;;;;;;;5.39;95.47;97994.78;5025710;28;20025;-72
2023/12/20 02:42:08;;;;;;;8.80;7.78;;;;;;;5.36;94.48;98000.56;5028630;28;20059;-71
2023/12/20 02:44:33;;;;;;;8.82;7.93;;;;;;;5.35;94.65;97992.75;5004771;28;20029;-70
2023/12/20 02:46:59;;;;;;;9.80;8.80;;;;;;;5.39;94.95;98000.13;5039636;28;20033;-71
2023/12/20 02:49:24;;;;;;;8.80;7.47;;;;;;;5.37;94.88;97988.03;5028210;28;20076;-71
2023/12/20 02:51:50;;;;;;;9.18;8.27;;;;;;;5.37;94.58;97996.84;5026974;28;20128;-71
2023/12/20 02:54:15;;;;;;;7.57;6.88;;;;;;;5.21;94.48;97965.34;5012045;28;20022;-72
2023/12/20 02:56:40;;;;;;;9.27;7.10;;;;;;;5.37;95.22;98002.19;5034116;28;20473;-70
2023/12/20 02:59:08;;;;;;;8.13;7.15;;;;;;;5.37;94.89;97996.84;5002033;28;20039;-70
2023/12/20 03:01:34;;;;;;;7.97;6.97;;;;;;;5.23;93.87;97968.59;5031094;28;20402;-70
2023/12/20 03:03:59;;;;;;;7.70;6.78;;;;;;;5.34;94.58;97997.31;5013445;28;20109;-70
2023/12/20 03:06:25;;;;;;;7.57;6.88;;;;;;;5.35;94.99;98009.59;5037102;28;20084;-70
2023/12/20 03:08:50;;;;;;;7.97;6.70;;;;;;;5.32;95.25;98007.34;4999886;28;20036;-70
2023/12/20 03:11:15;;;;;;;7.45;6.75;;;;;;;5.28;94.45;97998.16;5017791;28;20124;-70
2023/12/20 03:13:41;;;;;;;7.22;6.63;;;;;;;5.26;95.53;98000.22;5041880;28;20036;-69
2023/12/20 03:16:10;;;;;;;8.82;7.35;;;;;;;5.27;94.66;97993.03;5045246;28;20045;-70
2023/12/20 03:18:36;;;;;;;7.82;6.03;;;;;;;5.16;94.76;97983.84;5025268;28;20478;-70
2023/12/20 03:21:01;;;;;;;7.68;6.97;;;;;;;5.22;94.68;97999.03;5014262;28;20030;-72
2023/12/20 03:23:27;;;;;;;6.90;6.28;;;;;;;5.16;94.62;97993.72;5023465;28;20029;-70
2023/12/20 03:25:52;;;;;;;6.00;5.40;;;;;;;5.16;95.17;97999.88;5039955;28;20468;-71
2023/12/20 03:28:18;;;;;;;6.10;5.50;;;;;;;5.19;94.83;98004.78;5000351;28;20029;-70
2023/12/20 03:30:43;;;;;;;4.60;4.20;;;;;;;5.17;94.80;98004.19;5025461;28;20044;-70
2023/12/20 03:33:09;;;;;;;5.88;4.47;;;;;;;5.19;94.82;98023.47;5008585;28;20031;-70
2023/12/20 03:35:34;;;;;;;4.88;4.45;;;;;;;5.14;94.65;98012.63;5037335;28;20256;-70
2023/12/20 03:38:00;;;;;;;5.15;4.75;;;;;;;5.08;95.00;98008.16;5024847;28;20078;-70
2023/12/20 03:40:25;;;;;;;4.25;3.83;;;;;;;5.07;94.47;98003.81;5041136;28;20028;-70
2023/12/20 03:42:51;;;;;;;4.30;3.88;;;;;;;5.01;94.61;97991.34;5020862;28;20493;-70
2023/12/20 03:45:16;;;;;;;4.32;3.92;;;;;;;5.13;94.34;98011.00;5021399;28;20037;-70
2023/12/20 03:47:42;;;;;;;3.80;3.50;;;;;;;4.99;94.44;97993.41;5006866;28;20109;-71
2023/12/20 03:50:07;;;;;;;4.32;3.97;;;;;;;5.10;94.49;98011.41;5047874;28;20040;-70
2023/12/20 03:52:32;;;;;;;3.67;3.30;;;;;;;5.09;94.51;98007.09;5019308;28;20100;-70
2023/12/20 03:54:58;;;;;;;3.63;3.33;;;;;;;5.05;94.05;98003.22;5026145;28;20044;-70
2023/12/20 03:57:23;;;;;;;4.30;3.90;;;;;;;5.05;94.25;97997.88;5044433;28;20086;-70
2023/12/20 03:59:48;;;;;;;2.95;2.75;;;;;;;4.92;94.24;98003.31;5048566;28;20044;-70
2023/12/20 04:02:14;;;;;;;3.33;3.03;;;;;;;4.99;93.43;97992.59;5050795;28;20033;-69
2023/12/20 04:04:39;;;;;;;3.70;3.40;;;;;;;5.08;93.48;98008.16;5037656;28;20033;-70
2023/12/20 04:07:04;;;;;;;3.53;3.22;;;;;;;5.11;93.56;98007.69;5049760;28;20025;-69
2023/12/20 04:09:30;;;;;;;2.95;2.75;;;;;;;5.02;94.09;98014.31;5044936;28;20060;-70
2023/12/20 04:11:55;;;;;;;3.35;3.05;;;;;;;5.03;93.83;98015.97;5031261;28;20097;-70
2023/12/20 04:14:21;;;;;;;3.15;2.95;;;;;;;5.01;94.33;98018.03;5033068;28;20113;-69
2023/12/20 04:16:46;;;;;;;3.05;2.85;;;;;;;5.02;94.63;98017.00;5047816;28;20021;-69
2023/12/20 04:19:11;;;;;;;2.40;2.30;;;;;;;4.96;93.80;98015.19;5032475;28;20037;-69
2023/12/20 04:21:37;;;;;;;2.60;2.40;;;;;;;4.96;94.44;98015.19;5045780;28;20028;-69
2023/12/20 04:24:02;;;;;;;3.35;3.15;;;;;;;4.98;94.19;98015.78;5044823;28;20123;-69
2023/12/20 04:26:29;;;;;;;5.72;4.35;;;;;;;4.93;94.23;97999.59;5047151;28;20024;-69
2023/12/20 04:28:54;;;;;;;2.95;2.75;;;;;;;4.80;94.08;97989.81;5045050;28;20037;-69
2023/12/20 04:31:20;;;;;;;4.22;3.92;;;;;;;4.81;94.37;98001.28;5033578;28;20037;-68
2023/12/20 04:33:45;;;;;;;2.65;2.45;;;;;;;4.87;94.05;98013.78;5041152;28;20527;-71
2023/12/20 04:36:10;;;;;;;3.33;2.80;;;;;;;4.75;94.10;98008.31;5044219;28;20020;-70
2023/12/20 04:38:36;;;;;;;3.42;3.20;;;;;;;4.90;93.45;98032.06;5034690;28;20052;-70
2023/12/20 04:41:01;;;;;;;3.25;2.90;;;;;;;4.83;93.93;98020.59;5045779;28;20044;-70
2023/12/20 04:43:28;;;;;;;2.90;2.70;;;;;;;4.87;93.96;98021.78;5044071;28;20555;-70
2023/12/20 04:45:53;;;;;;;2.90;2.70;;;;;;;4.97;94.02;98014.13;5049837;28;20077;-71
2023/12/20 04:48:18;;;;;;;2.72;2.53;;;;;;;4.95;93.50;98002.84;5032400;28;20045;-71
2023/12/20 04:50:44;;;;;;;3.30;3.08;;;;;;;4.95;93.45;98008.19;5030145;28;20025;-71
2023/12/20 04:53:10;;;;;;;3.15;2.85;;;;;;;4.94;93.68;98008.41;5031968;28;20048;-71
2023/12/20 04:55:35;;;;;;;3.13;2.83;;;;;;;5.00;93.47;98019.06;5046340;28;20028;-71
2023/12/20 04:58:00;;;;;;;3.67;3.38;;;;;;;4.90;93.53;98005.38;5044921;28;20044;-71
2023/12/20 05:00:26;;;;;;;3.60;3.40;;;;;;;4.94;93.66;98005.75;5047111;28;20032;-71
2023/12/20 05:02:51;;;;;;;4.35;3.40;;;;;;;5.00;93.52;98020.91;5031953;28;20039;-70
2023/12/20 05:05:17;;;;;;;3.30;3.10;;;;;;;4.93;93.73;98004.94;5045396;28;20530;-72
2023/12/20 05:07:43;;;;;;;3.40;3.20;;;;;;;5.06;93.93;98015.56;5035570;28;20087;-71
2023/12/20 05:10:09;;;;;;;3.20;3.00;;;;;;;4.98;93.87;98026.47;5021867;28;20086;-70
2023/12/20 05:12:34;;;;;;;4.20;3.90;;;;;;;5.06;93.57;98015.56;5036543;28;20482;-71
2023/12/20 05:15:00;;;;;;;3.80;3.45;;;;;;;5.08;93.80;98018.81;5043266;28;20080;-71
2023/12/20 05:17:25;;;;;;;4.22;3.85;;;;;;;5.04;93.06;98001.56;5034044;28;20045;-71
2023/12/20 05:19:51;;;;;;;4.25;3.95;;;;;;;5.10;93.39;98007.91;5032348;28;20061;-71
2023/12/20 05:22:17;;;;;;;4.70;4.25;;;;;;;5.00;93.34;98004.88;5040953;28;20053;-71
2023/12/20 05:24:42;;;;;;;35.40;30.70;;;;;;;4.99;93.84;98028.09;5033880;28;20025;-71
2023/12/20 05:27:07;;;;;;;27.63;21.60;;;;;;;5.06;93.28;98031.56;5021509;28;20080;-71
2023/12/20 05:29:33;;;;;;;10.88;9.82;;;;;;;5.02;94.15;98029.53;5041317;28;20051;-71
2023/12/20 05:31:59;;;;;;;54.20;46.40;;;;;;;5.02;94.62;98041.00;5044068;28;20049;-71
2023/12/20 05:34:24;;;;;;;53.85;49.20;;;;;;;5.01;93.88;98033.22;5026926;28;20022;-71
2023/12/20 05:36:49;;;;;;;7.78;7.25;;;;;;;5.01;93.77;98034.03;5014439;28;20057;-72
2023/12/20 05:39:15;;;;;;;10.23;9.52;;;;;;;5.02;94.34;98041.00;5009112;28;20026;-71
2023/12/20 05:41:40;;;;;;;9.77;9.18;;;;;;;5.01;93.91;98047.38;5012839;28;20482;-71
2023/12/20 05:44:05;;;;;;;9.30;8.60;;;;;;;5.06;94.06;98063.59;5015203;28;20031;-71
2023/12/20 05:46:31;;;;;;;9.23;8.55;;;;;;;5.04;94.79;98057.63;5020121;28;20037;-70
2023/12/20 05:48:56;;;;;;;6.90;6.40;;;;;;;4.98;93.94;98045.13;5042819;28;20024;-71
2023/12/20 05:51:22;;;;;;;8.73;8.02;;;;;;;5.07;93.75;98059.03;5038841;28;20045;-70
2023/12/20 05:53:49;;;;;;;9.40;8.70;;;;;;;5.07;94.14;98070.53;5050674;28;20021;-70
2023/12/20 05:56:15;;;;;;;8.63;7.95;;;;;;;4.98;94.81;98069.16;5031286;28;20093;-70
2023/12/20 05:58:40;;;;;;;9.93;9.23;;;;;;;5.08;94.68;98079.38;5022035;28;20029;-71
2023/12/20 06:01:08;;;;;;;7.90;7.25;;;;;;;5.13;94.93;98079.56;5020963;28;20067;-70
2023/12/20 06:03:33;;;;;;;10.07;9.15;;;;;;;5.02;95.00;98062.34;5022776;28;20029;-70
2023/12/20 06:06:00;;;;;;;8.32;7.53;;;;;;;5.03;95.02;98082.69;5035661;28;20037;-70
2023/12/20 06:08:25;;;;;;;8.18;7.57;;;;;;;4.95;95.27;98069.56;5033838;28;20085;-71
2023/12/20 06:10:51;;;;;;;13.65;12.65;;;;;;;4.95;95.30;98080.25;5042012;28;20069;-71
2023/12/20 06:13:16;;;;;;;9.18;8.45;;;;;;;4.98;95.06;98082.50;5045571;28;20031;-70
2023/12/20 06:15:42;;;;;;;8.05;7.45;;;;;;;4.96;95.67;98084.56;5038009;28;20485;-71
2023/12/20 06:18:07;;;;;;;13.38;12.15;;;;;;;5.02;95.40;98089.03;5026365;28;20025;-71
2023/12/20 06:20:33;;;;;;;9.38;8.63;;;;;;;4.99;94.85;98084.16;5018687;28;20064;-71
2023/12/20 06:22:58;;;;;;;9.80;9.00;;;;;;;5.03;95.93;98090.69;5025772;28;20060;-70
2023/12/20 06:25:24;;;;;;;9.88;9.07;;;;;;;4.97;95.21;98078.19;5030832;28;20671;-71
2023/12/20 06:27:49;;;;;;;11.25;10.15;;;;;;;5.04;95.48;98097.66;5027323;28;20044;-71
2023/12/20 06:30:15;;;;;;;13.02;11.85;;;;;;;4.88;95.74;98082.13;5024615;28;20057;-71
2023/12/20 06:32:42;;;;;;;12.52;11.40;;;;;;;4.89;96.28;98086.44;5025050;28;20479;-70
2023/12/20 06:35:08;;;;;;;11.68;10.63;;;;;;;5.03;95.97;98106.69;5014165;28;20374;-71
2023/12/20 06:37:33;;;;;;;9.82;8.93;;;;;;;5.03;95.84;98114.72;5050007;28;20108;-71
2023/12/20 06:39:59;;;;;;;9.75;8.85;;;;;;;5.05;95.89;98114.47;5038800;28;20033;-71
2023/12/20 06:42:24;;;;;;;11.45;10.45;;;;;;;5.07;95.57;98117.75;5027970;28;20028;-71
2023/12/20 06:44:50;;;;;;;10.85;9.93;;;;;;;5.00;96.36;98101.78;5041685;28;20500;-71
2023/12/20 06:47:15;;;;;;;9.25;8.45;;;;;;;5.06;95.55;98108.13;5039786;28;20022;-71
2023/12/20 06:49:41;;;;;;;9.20;8.30;;;;;;;4.94;96.05;98091.97;5027227;28;20041;-71
2023/12/20 06:52:06;;;;;;;11.50;10.10;;;;;;;5.01;95.72;98114.09;5030687;28;20032;-71
2023/12/20 06:54:33;;;;;;;9.80;8.85;;;;;;;4.96;95.78;98105.06;5049148;28;20485;-71
2023/12/20 06:56:59;;;;;;;8.93;8.10;;;;;;;4.90;95.33;98109.44;5013050;28;20504;-71
2023/12/20 06:59:25;;;;;;;8.95;8.20;;;;;;;5.01;94.85;98129.28;5007428;28;20043;-72
2023/12/20 07:01:51;;;;;;;8.43;7.53;;;;;;;5.00;95.09;98140.97;5053440;28;20035;-72
2023/12/20 07:04:20;;;;;;;8.55;7.57;;;;;;;4.93;95.06;98142.84;5044436;28;20041;-71
2023/12/20 07:06:45;;;;;;;8.65;7.80;;;;;;;4.97;94.73;98144.09;5036972;28;20040;-71
2023/12/20 07:09:13;;;;;;;8.88;8.00;;;;;;;5.03;95.03;98159.25;5048543;28;20060;-71
2023/12/20 07:11:38;;;;;;;7.93;7.22;;;;;;;5.01;94.51;98153.31;5050312;28;20552;-71
2023/12/20 07:14:03;;;;;;;8.77;7.97;;;;;;;4.92;94.79;98166.06;5033774;28;20508;-71
2023/12/20 07:16:29;;;;;;;8.80;8.00;;;;;;;4.98;94.22;98157.22;5047173;28;20041;-71
2023/12/20 07:18:56;;;;;;;8.50;7.50;;;;;;;5.01;93.75;98169.31;5032610;28;20457;-71
2023/12/20 07:21:21;;;;;;;8.95;7.88;;;;;;;4.89;94.47;98153.97;5031395;28;20108;-71
2023/12/20 07:23:46;;;;;;;9.23;8.40;;;;;;;4.96;94.14;98164.59;5049714;28;20545;-71
2023/12/20 07:26:12;;;;;;;9.25;8.45;;;;;;;4.88;94.15;98162.16;5046702;28;20036;-72
2023/12/20 07:28:37;;;;;;;9.13;8.32;;;;;;;4.89;93.63;98164.63;5048682;28;20502;-71
2023/12/20 07:31:03;;;;;;;9.40;8.50;;;;;;;4.96;93.11;98163.78;5027811;28;20025;-71
2023/12/20 07:33:28;;;;;;;10.55;9.55;;;;;;;4.84;93.39;98161.75;5033406;28;20048;-71
2023/12/20 07:35:53;;;;;;;10.05;9.18;;;;;;;4.81;94.02;98166.69;5052522;28;20025;-71
2023/12/20 07:38:19;;;;;;;11.25;10.15;;;;;;;4.78;94.05;98172.47;5034872;28;20034;-71
2023/12/20 07:40:44;;;;;;;13.15;10.77;;;;;;;4.79;93.61;98168.75;5033414;28;20048;-71
2023/12/20 07:43:10;;;;;;;10.27;9.27;;;;;;;4.82;93.90;98176.34;5049711;28;20037;-71
2023/12/20 07:45:35;;;;;;;10.80;9.70;;;;;;;4.88;93.94;98165.66;5023976;28;20025;-71
2023/12/20 07:48:00;;;;;;;12.25;10.68;;;;;;;4.85;93.74;98175.94;5039005;28;20052;-71
2023/12/20 07:50:27;;;;;;;11.82;10.65;;;;;;;4.86;94.02;98177.56;5044418;28;20021;-71
2023/12/20 07:52:53;;;;;;;11.02;9.93;;;;;;;4.92;94.80;98184.75;5022640;28;20507;-71
2023/12/20 07:55:18;;;;;;;11.25;10.15;;;;;;;4.99;94.01;98184.72;5041417;28;20029;-71
2023/12/20 07:57:43;;;;;;;11.68;10.50;;;;;;;4.97;93.43;98181.44;5040896;28;20025;-71
2023/12/20 08:00:09;;;;;;;13.05;10.93;;;;;;;5.09;93.98;98193.91;5026498;28;20519;-71
2023/12/20 08:02:35;;;;;;;12.35;11.13;;;;;;;4.93;94.61;98159.69;5049021;28;20444;-71
2023/12/20 08:05:00;;;;;;;12.88;11.57;;;;;;;5.05;93.95;98184.69;5047213;28;20021;-71
2023/12/20 08:07:26;;;;;;;11.23;10.05;;;;;;;5.03;94.11;98181.44;5047644;28;20045;-71
2023/12/20 08:09:51;;;;;;;11.65;9.88;;;;;;;4.84;94.85;98151.09;5028296;28;20025;-71
2023/12/20 08:12:17;;;;;;;11.82;10.73;;;;;;;5.05;94.20;98186.53;5014161;28;20072;-71
2023/12/20 08:14:42;;;;;;;12.05;10.82;;;;;;;5.03;93.54;98176.09;5039705;28;20031;-71
2023/12/20 08:17:07;;;;;;;11.40;10.30;;;;;;;5.10;93.42;98182.22;5039719;28;20394;-71
2023/12/20 08:19:33;;;;;;;10.63;9.63;;;;;;;5.07;94.33;98182.63;5034737;28;20079;-71
2023/12/20 08:21:58;;;;;;;11.50;10.38;;;;;;;5.07;94.06;98187.97;5037011;28;20041;-71
2023/12/20 08:24:23;;;;;;;10.40;9.38;;;;;;;5.04;94.23;98187.59;5050177;28;20029;-71
2023/12/20 08:26:49;;;;;;;8.73;8.00;;;;;;;5.02;93.64;98185.09;5046066;28;20037;-71
2023/12/20 08:29:14;;;;;;;10.38;9.48;;;;;;;5.01;94.10;98198.66;5031704;28;20025;-71
2023/12/20 08:31:40;;;;;;;9.15;8.35;;;;;;;5.08;93.67;98196.81;5023206;28;20033;-71
2023/12/20 08:34:05;;;;;;;9.00;8.10;;;;;;;5.09;93.75;98201.13;5022770;28;20440;-71
2023/12/20 08:36:30;;;;;;;8.73;8.02;;;;;;;5.14;93.09;98198.63;5041969;28;20045;-71
2023/12/20 08:38:56;;;;;;;8.60;7.90;;;;;;;5.10;93.74;98192.06;5036335;28;20053;-71
2023/12/20 08:41:21;;;;;;;9.50;8.70;;;;;;;5.07;93.02;98181.81;5045063;28;20041;-71
2023/12/20 08:43:47;;;;;;;8.70;7.90;;;;;;;5.01;93.35;98182.66;5025047;28;20040;-71
2023/12/20 08:46:14;;;;;;;9.65;8.85;;;;;;;5.05;92.85;98184.69;5030117;28;20060;-71
2023/12/20 08:48:39;;;;;;;9.02;8.13;;;;;;;5.03;92.90;98186.75;5034854;28;20675;-73
2023/12/20 08:51:07;;;;;;;8.90;8.10;;;;;;;5.03;93.13;98185.94;5027383;28;20029;-72
2023/12/20 08:53:33;;;;;;;7.40;6.80;;;;;;;5.13;93.07;98195.16;5043185;28;20021;-72
2023/12/20 08:56:01;;;;;;;7.47;6.60;;;;;;;5.28;92.07;98184.22;5026287;28;20041;-71
2023/12/20 08:58:26;;;;;;;7.25;6.55;;;;;;;5.52;91.80;98200.34;5030534;28;20029;-72
2023/12/20 09:00:51;;;;;;;10.10;6.60;;;;;;;5.56;91.52;98193.53;5016453;28;20041;-72
2023/12/20 09:03:17;;;;;;;7.00;6.30;;;;;;;5.49;91.21;98203.44;5045952;28;20024;-71
2023/12/20 09:05:42;;;;;;;6.53;5.93;;;;;;;5.54;90.04;98198.28;5007567;28;20501;-71
2023/12/20 09:08:09;;;;;;;7.25;5.63;;;;;;;5.57;90.54;98210.41;5035234;28;20025;-71
2023/12/20 09:10:35;;;;;;;6.20;5.60;;;;;;;5.61;89.32;98222.28;5020247;28;20037;-71
2023/12/20 09:13:00;;;;;;;6.80;6.10;;;;;;;5.66;88.98;98218.97;5022989;28;20048;-71
2023/12/20 09:15:26;;;;;;;6.47;4.95;;;;;;;5.65;88.65;98222.69;5029079;28;20046;-72
2023/12/20 09:17:52;;;;;;;7.85;5.15;;;;;;;5.65;89.06;98209.34;5020718;28;20020;-71
2023/12/20 09:20:18;;;;;;;7.93;4.78;;;;;;;5.40;88.56;98193.19;5016269;28;20033;-71
2023/12/20 09:22:43;;;;;;;5.40;4.20;;;;;;;5.47;87.91;98213.50;5025982;28;20027;-72
2023/12/20 09:25:10;;;;;;;8.65;4.75;;;;;;;5.59;87.44;98214.50;5026626;28;20048;-72
2023/12/20 09:27:35;;;;;;;5.97;3.95;;;;;;;5.64;86.96;98210.38;5009472;28;20546;-72
2023/12/20 09:30:01;;;;;;;5.45;4.28;;;;;;;5.81;86.34;98222.22;5029652;28;20037;-72
2023/12/20 09:32:26;;;;;;;9.40;4.45;;;;;;;5.79;85.94;98224.28;5046165;28;20013;-71
2023/12/20 09:34:51;;;;;;;6.22;4.15;;;;;;;5.74;86.38;98216.09;5026302;28;20583;-72
2023/12/20 09:37:17;;;;;;;9.60;4.05;;;;;;;5.70;86.53;98215.66;5030711;28;20055;-72
2023/12/20 09:39:42;;;;;;;8.85;3.92;;;;;;;5.79;85.88;98224.28;5033745;28;20481;-72
2023/12/20 09:42:08;;;;;;;5.72;3.70;;;;;;;5.85;86.55;98234.13;5017196;28;20109;-72
2023/12/20 09:44:36;;;;;;;6.70;3.83;;;;;;;5.73;85.93;98209.09;5029182;28;20124;-72
2023/12/20 09:47:04;;;;;;;7.30;4.20;;;;;;;5.84;86.13;98221.75;5008937;28;20017;-72
2023/12/20 09:49:30;;;;;;;6.05;4.30;;;;;;;5.94;86.51;98232.84;5026801;28;20486;-72
2023/12/20 09:51:56;;;;;;;4.70;3.70;;;;;;;5.89;85.67;98235.34;5028032;28;20040;-72
2023/12/20 09:54:22;;;;;;;6.25;3.72;;;;;;;5.76;86.49;98214.00;5029068;28;20068;-72
2023/12/20 09:56:48;;;;;;;6.45;4.20;;;;;;;5.96;85.94;98226.25;5001282;28;20021;-72
2023/12/20 09:59:14;;;;;;;7.13;4.07;;;;;;;5.92;85.40;98224.22;5011421;28;20041;-72
2023/12/20 10:01:40;;;;;;;6.03;3.58;;;;;;;6.01;85.37;98238.97;5011151;28;20104;-72
2023/12/20 10:04:08;;;;;;;7.60;3.70;;;;;;;6.04;85.19;98233.22;5027204;28;20073;-72
2023/12/20 10:06:43;;;;;;;6.32;3.35;;;;;;;5.99;84.47;98231.19;5018699;28;20036;-72
2023/12/20 10:09:09;;;;;;;7.20;3.65;;;;;;;6.02;84.54;98224.59;5029837;28;20121;-72
2023/12/20 10:11:39;;;;;;;9.98;3.40;;;;;;;6.02;84.26;98216.56;5041150;28;20033;-71
2023/12/20 10:14:05;;;;;;;6.63;3.38;;;;;;;5.96;83.35;98214.75;5013968;28;20033;-72
2023/12/20 10:16:31;;;;;;;7.07;3.42;;;;;;;5.89;84.27;98213.97;5030421;28;20020;-71
2023/12/20 10:18:56;;;;;;;6.85;3.20;;;;;;;5.99;83.79;98198.28;5021583;28;20025;-72
2023/12/20 10:21:22;;;;;;;7.97;3.47;;;;;;;5.97;83.09;98184.31;5030292;28;20474;-72
2023/12/20 10:23:49;;;;;;;7.00;3.60;;;;;;;6.04;83.38;98195.78;5002460;28;20038;-71
2023/12/20 10:26:25;;;;;;;5.75;3.40;;;;;;;6.10;82.51;98205.59;5017247;28;20025;-73
2023/12/20 10:28:53;;;;;;;9.40;4.10;;;;;;;6.07;83.28;98184.66;5011064;28;20037;-71
2023/12/20 10:31:33;;;;;;;7.43;3.33;;;;;;;6.10;83.22;98205.59;5025559;28;20029;-71
2023/12/20 10:33:59;;;;;;;6.72;3.53;;;;;;;6.05;82.46;98166.16;5023926;28;20033;-71
2023/12/20 10:36:26;;;;;;;7.50;3.10;;;;;;;6.17;82.04;98176.97;5029844;28;20025;-71
2023/12/20 10:38:52;;;;;;;5.43;3.25;;;;;;;6.06;82.55;98191.03;5021794;28;20056;-71
2023/12/20 10:41:27;;;;;;;8.18;3.63;;;;;;;6.23;80.86;98184.16;5020562;28;20107;-71
2023/12/20 10:43:58;;;;;;;7.80;3.72;;;;;;;6.21;81.02;98154.09;5033216;28;20473;-71
2023/12/20 10:46:26;;;;;;;7.45;3.42;;;;;;;6.26;81.22;98179.16;5023743;28;20033;-71
2023/12/20 10:48:53;;;;;;;8.10;3.13;;;;;;;6.28;80.88;98165.56;5022593;28;20052;-71
2023/12/20 10:51:20;;;;;;;7.72;3.60;;;;;;;6.18;81.04;98155.34;5019182;28;20489;-71
2023/12/20 10:53:47;;;;;;;8.27;3.13;;;;;;;6.17;81.06;98144.91;5019693;28;20425;-71
2023/12/20 10:56:16;;;;;;;8.50;3.10;;;;;;;6.29;81.35;98161.88;5025291;28;20041;-71
2023/12/20 10:58:45;;;;;;;9.55;3.60;;;;;;;6.29;81.84;98161.88;5034441;28;20112;-71
2023/12/20 11:01:12;;;;;;;9.82;3.08;;;;;;;6.24;80.92;98143.81;5029113;28;21263;-71
2023/12/20 11:03:38;;;;;;;6.45;3.10;;;;;;;6.09;80.50;98123.78;5031726;28;20029;-72
2023/12/20 11:06:10;;;;;;;8.30;3.10;;;;;;;6.18;80.57;98146.53;5026378;28;20087;-71
2023/12/20 11:08:54;;;;;;;6.82;3.67;;;;;;;6.17;81.85;98147.56;5037014;28;20046;-71
2023/12/20 11:12:04;;;;;;;7.72;3.55;;;;;;;6.02;80.88;98149.75;5044963;28;20041;-72
2023/12/20 11:14:38;;;;;;;7.57;3.25;;;;;;;6.05;81.73;98146.63;5038050;28;20044;-72
2023/12/20 11:17:08;;;;;;;7.03;2.83;;;;;;;6.04;81.72;98150.34;5027211;28;20405;-72
2023/12/20 11:19:36;;;;;;;6.72;3.00;;;;;;;6.10;80.78;98147.63;4998612;28;20064;-71
2023/12/20 11:22:04;;;;;;;7.10;2.88;;;;;;;6.15;81.57;98149.66;5011519;28;20029;-72
2023/12/20 11:24:31;;;;;;;7.07;3.33;;;;;;;6.07;81.53;98137.34;5019075;28;20030;-72
2023/12/20 11:26:56;;;;;;;6.97;2.90;;;;;;;6.16;80.74;98151.28;5003438;28;20457;-72
2023/12/20 11:29:35;;;;;;;5.90;3.03;;;;;;;6.09;80.10;98145.19;5046970;28;20043;-72
2023/12/20 11:32:02;;;;;;;5.13;3.08;;;;;;;6.12;81.00;98153.56;5013042;28;20564;-72